South West City, MO (64863)

7:32 AM CDT on September 01, 2014 (GMT -0500)
FryeComp -2 Mi/S SWC | Change Station
CLOSE
Current Station
Personal Weather Station
Location: Gravette, AR
Elevation: 1138 ft
Nearby Weather Stations

Elev 1138 ft 36.48 °N, 94.61 °W | Updated 11 seconds ago

Overcast
Overcast
64.5 °F
Feels Like 64.5 °F
N
5.0
Wind Variable Wind from ENE
Gusts 12.0 mph

Today
High -- | Low -- °F
--% Chance of Precip.
Yesterday
High -- | Low -- °F
Precip. -- in
6:49 AM 7:46 PM
Waxing Crescent, 40% visible
Pressure 30.01 in
Visibility 2.5 miles
Clouds
Dew Point 63 °F
Humidity 94%
Rainfall 0.81 in
Snow Depth Not available.
UV Not available.
Pollen 10.40 out of 12
Air Quality Not available.
Flu Activity Not available.
METAR KGMJ 011215Z AUTO 09008KT 2 1/2SM +TSRA 19/19 A3001 RMK AO2 SKY OBSCURED LTG DSNT SE AND SW P0017

More Conditions Fewer Conditions

Pressure 30.01 in
Visibility 2.5 miles
Clouds
Dew Point 63 °F
Humidity 94%
Rainfall 0.81 in
Snow Depth Not available.
UV Not available.
Pollen 10.40 out of 12
Air Quality Not available.
Flu Activity Not available.
METAR KGMJ 011215Z AUTO 09008KT 2 1/2SM +TSRA 19/19 A3001 RMK AO2 SKY OBSCURED LTG DSNT SE AND SW P0017

More Conditions Fewer Conditions

10-Day Weather Forecast

Almanac

Astronomy

Sep. 01, 2014 Rise Set
Actual Time 6:49 AM CDT 7:46 PM CDT
Civil Twilight 6:23 AM CDT 8:12 PM CDT
Nautical Twilight 5:52 AM CDT 8:43 PM CDT
Astronomical Twilight 5:19 AM CDT 9:16 PM CDT
Moon 1:25 PM CDT 11:59 PM CDT
Length of Visible Light 13h 49m
Length of Day
12h 56m
Tomorrow will be 2m 13s shorter.
Waxing Crescent, 40% of the Moon is Illuminated
Today
Waxing Crescent
Sep 2
First Quarter
Sep 8
Full
Sep 15
Last Quarter
Sep 24
New

Today's Extremes

State Highs State Lows

Community

WunderPhotos

Upload Photos

1,749,199 photos uploaded!

Nearby

Snow Depth

Station Depth Elevation
No new snow has been reported.

Earthquake Activity

City Distance Mag. Time & Date
No recent earthquake activity has been reported nearby.
Minimum magnitude displayed is 2.5.

Coastal Water Temperatures

Place Temperature
No Stations Reporting

Nearby Weather Stations